createdAt,value
2023-01-29T00:01:48.164Z,-1.14
2023-01-29T00:06:51.040Z,-1.07
2023-01-29T00:18:52.215Z,-1.04
2023-01-29T00:23:55.276Z,-1.04
2023-01-29T00:29:00.387Z,-1.01
2023-01-29T00:34:03.561Z,-0.96
2023-01-29T00:39:10.553Z,-0.91
2023-01-29T00:44:16.235Z,-0.90
2023-01-29T00:49:18.846Z,-0.85
2023-01-29T00:54:21.613Z,-0.82
2023-01-29T00:59:24.318Z,-0.82
2023-01-29T01:04:26.936Z,-0.82
2023-01-29T01:09:32.462Z,-0.79
2023-01-29T01:14:36.093Z,-0.76
2023-01-29T01:19:38.717Z,-0.78
2023-01-29T01:24:41.393Z,-0.77
2023-01-29T01:29:44.028Z,-0.76
2023-01-29T01:34:46.644Z,-0.78
2023-01-29T01:39:51.373Z,-0.80
2023-01-29T01:45:01.370Z,-0.79
2023-01-29T01:50:14.541Z,-0.75
2023-01-29T01:55:21.642Z,-0.72
2023-01-29T02:00:26.016Z,-0.67
2023-01-29T02:05:35.933Z,-0.64
2023-01-29T02:10:43.684Z,-0.67
2023-01-29T02:15:48.525Z,-0.72
2023-01-29T02:21:11.989Z,-0.75
2023-01-29T02:26:20.787Z,-0.73
2023-01-29T02:31:25.050Z,-0.71
2023-01-29T02:36:30.554Z,-0.70
2023-01-29T02:41:37.087Z,-0.67
2023-01-29T02:46:40.724Z,-0.66
2023-01-29T02:51:50.667Z,-0.69
2023-01-29T02:56:58.726Z,-0.73
2023-01-29T03:02:08.347Z,-0.73
2023-01-29T03:07:37.457Z,-0.76
2023-01-29T03:12:41.549Z,-0.80
2023-01-29T03:17:51.628Z,-0.83
2023-01-29T03:29:53.381Z,-0.78
2023-01-29T03:35:02.592Z,-0.81
2023-01-29T03:40:07.182Z,-0.84
2023-01-29T03:45:19.980Z,-0.81
2023-01-29T03:50:32.092Z,-0.80
2023-01-29T03:55:58.293Z,-0.79
2023-01-29T04:01:12.776Z,-0.80
2023-01-29T04:06:21.170Z,-0.81
2023-01-29T04:11:27.229Z,-0.81
2023-01-29T04:16:37.433Z,-0.79
2023-01-29T04:21:40.890Z,-0.77
2023-01-29T04:26:45.452Z,-0.78
2023-01-29T04:31:50.032Z,-0.81
2023-01-29T04:36:52.840Z,-0.82
2023-01-29T04:42:09.381Z,-0.79
2023-01-29T04:47:15.180Z,-0.79
2023-01-29T04:52:25.856Z,-0.79
2023-01-29T04:57:36.096Z,-0.78
2023-01-29T05:02:41.589Z,-0.75
2023-01-29T05:07:46.049Z,-0.74
2023-01-29T05:12:55.005Z,-0.74
2023-01-29T05:18:02.965Z,-0.71
2023-01-29T05:23:15.829Z,-0.68
2023-01-29T05:28:19.096Z,-0.64
2023-01-29T05:33:28.251Z,-0.64
2023-01-29T05:38:31.036Z,-0.63
2023-01-29T05:43:36.053Z,-0.64
2023-01-29T05:48:38.792Z,-0.63
2023-01-29T05:53:41.428Z,-0.59
2023-01-29T05:58:44.103Z,-0.54
2023-01-29T06:03:47.531Z,-0.52
2023-01-29T06:08:50.273Z,-0.50
2023-01-29T06:13:52.898Z,-0.49
2023-01-29T06:18:55.582Z,-0.47
2023-01-29T06:23:58.312Z,-0.46
2023-01-29T06:29:00.947Z,-0.44
2023-01-29T06:34:04.524Z,-0.42
2023-01-29T06:39:07.358Z,-0.41
2023-01-29T06:44:09.956Z,-0.42
2023-01-29T06:49:12.629Z,-0.41
2023-01-29T06:54:15.342Z,-0.37
2023-01-29T06:59:18.152Z,-0.34
2023-01-29T07:04:20.838Z,-0.31
2023-01-29T07:09:26.306Z,-0.27
2023-01-29T07:14:28.929Z,-0.23
2023-01-29T07:19:31.598Z,-0.21
2023-01-29T07:24:34.288Z,-0.20
2023-01-29T07:29:36.960Z,-0.20
2023-01-29T07:34:39.563Z,-0.18
2023-01-29T07:39:42.242Z,-0.13
2023-01-29T07:44:44.826Z,-0.04
2023-01-29T07:49:47.442Z,0.10
2023-01-29T07:54:50.072Z,0.25
2023-01-29T07:59:52.710Z,0.38
2023-01-29T08:04:57.601Z,0.50
2023-01-29T08:10:00.428Z,0.61
2023-01-29T08:15:03.487Z,0.71
2023-01-29T08:20:07.258Z,0.83
2023-01-29T08:25:12.703Z,1.00
2023-01-29T08:30:16.354Z,1.09
2023-01-29T08:35:19.292Z,1.23
2023-01-29T08:40:22.404Z,1.30
2023-01-29T08:45:25.046Z,1.40
2023-01-29T08:50:29.930Z,1.41
2023-01-29T08:55:32.732Z,1.44
2023-01-29T09:00:35.892Z,1.49
2023-01-29T09:05:40.183Z,1.58
2023-01-29T09:10:42.849Z,1.76
2023-01-29T09:15:45.442Z,1.87
2023-01-29T09:20:48.547Z,1.93
2023-01-29T09:25:51.176Z,1.83
2023-01-29T09:30:53.981Z,1.73
2023-01-29T09:35:56.860Z,1.75
2023-01-29T09:41:16.122Z,1.71
2023-01-29T09:46:19.773Z,1.67
2023-01-29T09:51:30.504Z,1.62
2023-01-29T09:56:33.474Z,1.64
2023-01-29T10:01:49.247Z,1.83
2023-01-29T10:06:57.663Z,2.12
2023-01-29T10:12:21.440Z,2.35
2023-01-29T10:17:29.858Z,2.50
2023-01-29T10:22:35.352Z,2.60
2023-01-29T10:27:41.537Z,2.58
2023-01-29T10:32:44.294Z,2.45
2023-01-29T10:37:47.461Z,2.27
2023-01-29T10:43:00.162Z,2.21
2023-01-29T10:48:07.670Z,2.25
2023-01-29T10:53:25.848Z,2.35
2023-01-29T10:58:33.518Z,2.31
2023-01-29T11:03:36.933Z,2.29
2023-01-29T11:08:46.181Z,2.32
2023-01-29T11:13:53.651Z,2.33
2023-01-29T11:18:59.377Z,2.26
2023-01-29T11:24:22.722Z,2.17
2023-01-29T11:29:27.528Z,2.11
2023-01-29T11:34:31.498Z,2.05
2023-01-29T11:39:44.527Z,2.06
2023-01-29T11:44:47.158Z,2.09
2023-01-29T11:49:53.132Z,2.16
2023-01-29T11:55:02.132Z,2.36
2023-01-29T12:00:18.065Z,2.53
2023-01-29T12:05:24.011Z,2.50
2023-01-29T12:10:32.928Z,2.39
2023-01-29T12:15:38.823Z,2.27
2023-01-29T12:20:51.529Z,2.08
2023-01-29T12:25:57.005Z,1.94
2023-01-29T12:31:02.493Z,2.02
2023-01-29T12:36:14.418Z,2.11
2023-01-29T12:41:22.817Z,2.09
2023-01-29T12:46:33.273Z,2.05
2023-01-29T12:51:45.632Z,2.08
2023-01-29T12:56:51.964Z,2.08
2023-01-29T13:01:58.196Z,2.00
2023-01-29T13:07:12.998Z,1.86
2023-01-29T13:12:18.523Z,1.82
2023-01-29T13:17:24.086Z,1.82
2023-01-29T13:22:31.902Z,1.75
2023-01-29T13:27:36.518Z,1.78
2023-01-29T13:32:39.209Z,1.80
2023-01-29T13:37:55.012Z,1.74
2023-01-29T13:43:00.199Z,1.67
2023-01-29T13:48:09.112Z,1.67
2023-01-29T13:53:24.339Z,1.60
2023-01-29T13:58:31.801Z,1.54
2023-01-29T14:04:03.201Z,1.49
2023-01-29T14:09:29.371Z,1.46
2023-01-29T14:14:37.793Z,1.44
2023-01-29T14:19:48.719Z,1.40
2023-01-29T14:24:56.190Z,1.40
2023-01-29T14:30:06.860Z,1.40
2023-01-29T14:35:18.019Z,1.37
2023-01-29T14:40:24.505Z,1.32
2023-01-29T14:45:30.089Z,1.29
2023-01-29T14:50:32.856Z,1.25
2023-01-29T14:55:38.072Z,1.18
2023-01-29T15:00:47.183Z,1.16
2023-01-29T15:05:51.649Z,1.18
2023-01-29T15:11:00.363Z,1.15
2023-01-29T15:16:13.281Z,1.13
2023-01-29T15:21:18.311Z,1.11
2023-01-29T15:26:26.993Z,1.11
2023-01-29T15:31:30.031Z,1.10
2023-01-29T15:36:33.218Z,1.09
2023-01-29T15:41:36.221Z,1.09
2023-01-29T15:46:42.108Z,1.10
2023-01-29T15:51:46.454Z,1.13
2023-01-29T15:56:52.547Z,1.12
2023-01-29T16:01:56.284Z,1.10
2023-01-29T16:07:00.871Z,1.10
2023-01-29T16:12:04.247Z,1.12
2023-01-29T16:17:29.990Z,1.11
2023-01-29T16:22:35.685Z,1.12
2023-01-29T16:27:38.644Z,1.15
2023-01-29T16:32:41.510Z,1.17
2023-01-29T16:37:50.717Z,1.18
2023-01-29T16:43:15.504Z,1.17
2023-01-29T16:48:24.147Z,1.14
2023-01-29T16:53:27.408Z,1.14
2023-01-29T16:58:30.341Z,1.13
2023-01-29T17:03:35.325Z,1.12
2023-01-29T17:08:41.569Z,1.12
2023-01-29T17:13:45.206Z,1.09
2023-01-29T17:18:47.853Z,1.09
2023-01-29T17:23:54.355Z,1.07
2023-01-29T17:28:57.059Z,1.07
2023-01-29T17:33:59.695Z,1.06
2023-01-29T17:39:02.357Z,1.05
2023-01-29T17:44:05.046Z,1.08
2023-01-29T17:49:32.488Z,1.08
2023-01-29T17:54:35.297Z,1.07
2023-01-29T18:00:52.032Z,1.06
2023-01-29T18:05:54.675Z,1.05
2023-01-29T18:10:57.357Z,1.05
2023-01-29T18:16:00.090Z,1.03
2023-01-29T18:21:02.811Z,1.01
2023-01-29T18:26:06.743Z,1.00
2023-01-29T18:31:10.148Z,0.98
2023-01-29T18:36:13.617Z,0.99
2023-01-29T18:41:16.262Z,1.01
2023-01-29T18:46:19.452Z,1.03
2023-01-29T18:51:22.063Z,1.01
2023-01-29T18:57:04.269Z,0.96
2023-01-29T19:02:17.770Z,0.95
2023-01-29T19:07:20.569Z,0.98
2023-01-29T19:12:23.745Z,1.00
2023-01-29T19:17:27.154Z,1.05
2023-01-29T19:22:30.184Z,1.05
2023-01-29T19:27:32.902Z,1.04
2023-01-29T19:32:35.735Z,1.03
2023-01-29T19:37:38.398Z,1.05
2023-01-29T19:42:41.946Z,1.07
2023-01-29T19:47:44.598Z,1.09
2023-01-29T19:52:51.886Z,1.06
2023-01-29T19:57:56.968Z,1.03
2023-01-29T20:02:59.604Z,1.00
2023-01-29T20:08:02.219Z,1.00
2023-01-29T20:13:05.956Z,1.01
2023-01-29T20:18:11.748Z,1.01
2023-01-29T20:23:22.336Z,1.00
2023-01-29T20:28:30.774Z,0.99
2023-01-29T20:33:34.917Z,0.98
2023-01-29T20:38:37.914Z,0.98
2023-01-29T20:43:41.176Z,0.97
2023-01-29T20:48:43.860Z,0.99
2023-01-29T20:53:47.993Z,1.01
2023-01-29T20:58:50.758Z,1.04
2023-01-29T21:03:53.373Z,1.04
2023-01-29T21:08:56.241Z,1.07
2023-01-29T21:13:59.078Z,1.08
2023-01-29T21:19:01.772Z,1.08
2023-01-29T21:24:04.673Z,1.07
2023-01-29T21:29:07.314Z,1.09
2023-01-29T21:34:10.247Z,1.11
2023-01-29T21:39:15.869Z,1.14
2023-01-29T21:44:18.572Z,1.21
2023-01-29T21:49:21.227Z,1.24
2023-01-29T21:54:23.839Z,1.26
2023-01-29T21:59:26.635Z,1.26
2023-01-29T22:04:29.239Z,1.26
2023-01-29T22:09:31.835Z,1.27
2023-01-29T22:14:34.620Z,1.31
2023-01-29T22:19:37.267Z,1.32
2023-01-29T22:24:40.186Z,1.28
2023-01-29T22:29:43.063Z,1.27
2023-01-29T22:34:48.210Z,1.29
2023-01-29T22:39:50.826Z,1.30
2023-01-29T22:44:53.479Z,1.29
2023-01-29T22:49:58.184Z,1.32
2023-01-29T22:55:05.024Z,1.30
2023-01-29T23:00:11.211Z,1.26
2023-01-29T23:05:13.921Z,1.25
2023-01-29T23:10:17.390Z,1.25
2023-01-29T23:15:20.149Z,1.26
2023-01-29T23:20:22.802Z,1.26
2023-01-29T23:25:45.408Z,1.25
2023-01-29T23:30:49.511Z,1.24
2023-01-29T23:35:52.310Z,1.25
2023-01-29T23:40:57.902Z,1.27
2023-01-29T23:46:01.664Z,1.27
2023-01-29T23:51:04.398Z,1.27
2023-01-29T23:56:07.387Z,1.24
